Aldine, Texas
Current Conditions -  °F | °C
As of 3:53 AM on Friday 24 Oct 2014 (Local Time) from KIAH Reporting Station
Clear Clear  
Wind Chill: 56°   Ceiling: Unl
Heat Index: 56°   Visibility: 10mi
Dew Point: 54°   Wind: 3mph
Humidity: 93%   Direction: 30°NNE
Pressure: 30.12"   Gusts: NA
Location:  29.93°N, 95.38°W
Report Text: KIAH 240853Z 03003KT 10SM CLR 13/12 A3012 RMK AO2 SLP198 T01330122 50002
Loading
Personal Weather Stations






























Interactive Weather Map
Tropical Storm Tracking
New forecast layout! Learn more

10-Day Weather Forecast

Advertisements
Track Severe Weather on mobile